KDAG/DAG METAR and TAF weather

Enter ICAO airport designator
Station Type Date Time Source
KDAG METAR 2019/06/16 05:50 UTC NOAA

KDAG 160550Z AUTO 25017KT 10SM CLR 29/08 A2982 RMK AO2 SLP068 T02940078 10406 20294 51018


Station Type Date Time Source
KDAG Decoded METAR 2019/06/16 05:50 UTC NOAA

BARSTOW-DAGGETT AIRPORT, CA, United States (KDAG) 34-51N 116-47W 587M
Jun 16, 2019 - 01:50 AM EDT / 2019.06.16 0550 UTC
Wind: from the WSW (250 degrees) at 20 MPH (17 KT):0
Visibility: 10 mile(s):0
Sky conditions: clear
Temperature: 84.9 F (29.4 C)
Dew Point: 46.0 F (7.8 C)
Relative Humidity: 25%
Pressure (altimeter): 29.82 in. Hg (1009 hPa)
Pressure tendency: 0.05 inches (1.8 hPa) higher than three hours ago
ob: KDAG 160550Z AUTO 25017KT 10SM CLR 29/08 A2982 RMK AO2 SLP068 T02940078 10406 20294 51018
cycle: 6

Station Type Date Time Source
KDAG TAF 2019/06/16 06:22 UTC NOAA

TAF KDAG 160520Z 1606/1706 25015G25KT P6SM SKC
FM160800 26011KT P6SM SKC
FM162000 24010KT P6SM SCT250
FM170000 24018G28KT P6SM SKC

Example: see airport list